Valle Azzurra — ICEG — position and weather

sailwx.info

Track history (hours):
 
Tides and Currents Weather Stations Pressure Air Temp Water Temp Dewpoint Dewpoint Depression Visibility Wind Speed Wind Dir Waves Ship Positions

Valle Azzurra

Last reported at 2015-Aug-02 23:31 UTC. Time now 2015-Aug-03 00:32 UTC.
Position N 52°25' E 004°45'.

Length 183 m; draft 8.3 m.

Type: Tanker. MMSI: 247226600.

Date/timePositionNaut miles runAvg speedWind from/ knotsBaromVisibWave heightAir tempDewpointWater temp
2015-Aug-02 23:31N 52°25' E 004°45'0 0.0
2015-Aug-02 22:31N 52°25' E 004°45'0 0.0
2015-Aug-02 21:31N 52°25' E 004°45'0 0.0
2015-Aug-02 20:31N 52°25' E 004°45'0 0.0
2015-Aug-02 19:31N 52°25' E 004°45'0 0.0
2015-Aug-02 18:31N 52°25' E 004°45'0 0.0
2015-Aug-02 17:31N 52°25' E 004°45'0 0.0
2015-Aug-02 16:28N 52°25' E 004°45'0 0.0
2015-Aug-02 15:31N 52°25' E 004°45'0 0.0
2015-Aug-02 14:28N 52°25' E 004°45'0 0.0
2015-Aug-02 13:31N 52°25' E 004°45'0 0.0
2015-Aug-02 12:31N 52°25' E 004°45'0 0.0
2015-Aug-02 11:31N 52°25' E 004°45'0 0.0
2015-Aug-02 10:31N 52°25' E 004°45'0 0.0
2015-Aug-02 09:31N 52°25' E 004°45'0 0.0
2015-Aug-02 08:31N 52°25' E 004°45'0 0.0
2015-Aug-02 07:31N 52°25' E 004°45'0 0.0
2015-Aug-02 06:31N 52°25' E 004°45'0 0.0
2015-Aug-02 05:31N 52°25' E 004°45'0 0.0
2015-Aug-02 04:28N 52°25' E 004°45'0 0.0
2015-Aug-02 03:31N 52°25' E 004°45'0 0.0
2015-Aug-02 02:31N 52°25' E 004°45'0 0.0
2015-Aug-02 01:28N 52°25' E 004°45'0 0.0
2015-Aug-02 00:28N 52°25' E 004°45'0 0.0
2015-Aug-01 23:31N 52°25' E 004°45'0 0.0
2015-Aug-01 22:28N 52°25' E 004°45'0 0.0
2015-Aug-01 21:31N 52°25' E 004°45'0 0.0
2015-Aug-01 20:31N 52°25' E 004°45'0 0.0
2015-Aug-01 19:31N 52°25' E 004°45'0 0.0
2015-Aug-01 18:31N 52°25' E 004°45'0 0.0
2015-Aug-01 17:31N 52°25' E 004°45'0 0.0
2015-Aug-01 16:31N 52°25' E 004°45'0 0.0
2015-Aug-01 15:31N 52°25' E 004°45'0 0.0
2015-Aug-01 14:31N 52°25' E 004°45'0 0.0
2015-Aug-01 13:28N 52°25' E 004°45'0 0.0
2015-Aug-01 12:31N 52°25' E 004°45'0 0.0
2015-Aug-01 11:31N 52°25' E 004°45'0 0.0
2015-Aug-01 10:31N 52°25' E 004°45'0 0.0
2015-Aug-01 09:31N 52°25' E 004°45'0 0.0
2015-Aug-01 08:31N 52°25' E 004°45'0 0.0
2015-Aug-01 07:31N 52°25' E 004°45'0 0.0
2015-Aug-01 06:31N 52°25' E 004°45'0 0.0
2015-Aug-01 05:25N 52°25' E 004°45'0 0.0
2015-Aug-01 04:31N 52°25' E 004°45'0 0.0
2015-Aug-01 03:31N 52°25' E 004°45'0 0.0
2015-Aug-01 02:31N 52°25' E 004°45'0 0.0
2015-Aug-01 01:31N 52°25' E 004°45'0 0.0
2015-Aug-01 00:31N 52°25' E 004°45'0 0.0
2015-Jul-31 23:31N 52°25' E 004°45'0 0.0
2015-Jul-31 22:31N 52°25' E 004°45'0 0.0
2015-Jul-31 21:31N 52°25' E 004°45'0 0.0
2015-Jul-31 20:31N 52°25' E 004°45'0 0.0
2015-Jul-31 19:31N 52°25' E 004°45'0 0.0
2015-Jul-31 18:31N 52°25' E 004°45'0 0.0
2015-Jul-31 17:31N 52°25' E 004°45'0 0.0
2015-Jul-31 16:28N 52°25' E 004°45'0 0.0
2015-Jul-31 15:31N 52°25' E 004°45'0 0.0
2015-Jul-31 14:31N 52°25' E 004°45'0 0.0
2015-Jul-31 13:31N 52°25' E 004°45'0 0.0
2015-Jul-31 12:31N 52°25' E 004°45'0 0.0
2015-Jul-31 11:31N 52°25' E 004°45'0 0.0
2015-Jul-31 10:31N 52°25' E 004°45'0 0.0
2015-Jul-31 09:31N 52°25' E 004°45'0 0.0
2015-Jul-31 08:31N 52°25' E 004°45'0 0.0
2015-Jul-31 07:31N 52°25' E 004°45'0 0.0
2015-Jul-31 06:31N 52°25' E 004°45'0 0.0
2015-Jul-31 05:31N 52°25' E 004°45'0 0.0
2015-Jul-31 04:31N 52°25' E 004°45'0 0.0
2015-Jul-31 03:31N 52°25' E 004°45'0 0.1
2015-Jul-31 02:33N 52°25' E 004°45'5 4.8
2015-Jul-31 01:33N 52°28' E 004°39'2 2.2
2015-Jul-31 00:34N 52°28' E 004°35'7 6.6
2015-Jul-30 23:33N 52°29' E 004°24'6 6.3
2015-Jul-30 22:33N 52°29' E 004°14'4 3.6
2015-Jul-30 21:31N 52°28' E 004°08'0 0.0
2015-Jul-30 20:31N 52°28' E 004°08'0 0.0
2015-Jul-30 19:31N 52°28' E 004°08'0 0.0
2015-Jul-30 18:31N 52°28' E 004°08'0 0.0
2015-Jul-30 17:31N 52°28' E 004°08'0 0.0
2015-Jul-30 16:31N 52°28' E 004°08'0 0.4
2015-Jul-30 15:33N 52°28' E 004°08'1010.5
2015-Jul-30 14:33N 52°26' E 003°51'3313.6
2015-Jul-30 12:06N 52°07' E 003°06'3913.7
2015-Jul-30 09:13N 51°37' E 002°25'812.7
2015-Jul-30 08:33N 51°31' E 002°16'1212.0
2015-Jul-30 07:34N 51°20' E 002°09'1110.9
2015-Jul-30 06:34N 51°11' E 001°58'1111.2
2015-Jul-30 05:33N 51°05' E 001°44'1111.1
2015-Jul-30 04:33N 50°57' E 001°32'1211.6
2015-Jul-30 03:33N 50°46' E 001°24'  
Track history (hours):
 
Tides and Currents Weather Stations Pressure Air Temp Water Temp Dewpoint Dewpoint Depression Visibility Wind Speed Wind Dir Waves Ship Positions

Valle Azzurra

Last reported at 2015-Aug-02 23:31 UTC. Time now 2015-Aug-03 00:32 UTC.
Position N 52°25' E 004°45'.

Length 183 m; draft 8.3 m.

Type: Tanker. MMSI: 247226600.

Date/timePositionNaut miles runAvg speedWind from/ knotsBaromVisibWave heightAir tempDewpointWater temp
2015-Aug-02 23:31N 52°25' E 004°45'0 0.0
2015-Aug-02 22:31N 52°25' E 004°45'0 0.0
2015-Aug-02 21:31N 52°25' E 004°45'0 0.0
2015-Aug-02 20:31N 52°25' E 004°45'0 0.0
2015-Aug-02 19:31N 52°25' E 004°45'0 0.0
2015-Aug-02 18:31N 52°25' E 004°45'0 0.0
2015-Aug-02 17:31N 52°25' E 004°45'0 0.0
2015-Aug-02 16:28N 52°25' E 004°45'0 0.0
2015-Aug-02 15:31N 52°25' E 004°45'0 0.0
2015-Aug-02 14:28N 52°25' E 004°45'0 0.0
2015-Aug-02 13:31N 52°25' E 004°45'0 0.0
2015-Aug-02 12:31N 52°25' E 004°45'0 0.0
2015-Aug-02 11:31N 52°25' E 004°45'0 0.0
2015-Aug-02 10:31N 52°25' E 004°45'0 0.0
2015-Aug-02 09:31N 52°25' E 004°45'0 0.0
2015-Aug-02 08:31N 52°25' E 004°45'0 0.0
2015-Aug-02 07:31N 52°25' E 004°45'0 0.0
2015-Aug-02 06:31N 52°25' E 004°45'0 0.0
2015-Aug-02 05:31N 52°25' E 004°45'0 0.0
2015-Aug-02 04:28N 52°25' E 004°45'0 0.0
2015-Aug-02 03:31N 52°25' E 004°45'0 0.0
2015-Aug-02 02:31N 52°25' E 004°45'0 0.0
2015-Aug-02 01:28N 52°25' E 004°45'0 0.0
2015-Aug-02 00:28N 52°25' E 004°45'0 0.0
2015-Aug-01 23:31N 52°25' E 004°45'0 0.0
2015-Aug-01 22:28N 52°25' E 004°45'0 0.0
2015-Aug-01 21:31N 52°25' E 004°45'0 0.0
2015-Aug-01 20:31N 52°25' E 004°45'0 0.0
2015-Aug-01 19:31N 52°25' E 004°45'0 0.0
2015-Aug-01 18:31N 52°25' E 004°45'0 0.0
2015-Aug-01 17:31N 52°25' E 004°45'0 0.0
2015-Aug-01 16:31N 52°25' E 004°45'0 0.0
2015-Aug-01 15:31N 52°25' E 004°45'0 0.0
2015-Aug-01 14:31N 52°25' E 004°45'0 0.0
2015-Aug-01 13:28N 52°25' E 004°45'0 0.0
2015-Aug-01 12:31N 52°25' E 004°45'0 0.0
2015-Aug-01 11:31N 52°25' E 004°45'0 0.0
2015-Aug-01 10:31N 52°25' E 004°45'0 0.0
2015-Aug-01 09:31N 52°25' E 004°45'0 0.0
2015-Aug-01 08:31N 52°25' E 004°45'0 0.0
2015-Aug-01 07:31N 52°25' E 004°45'0 0.0
2015-Aug-01 06:31N 52°25' E 004°45'0 0.0
2015-Aug-01 05:25N 52°25' E 004°45'0 0.0
2015-Aug-01 04:31N 52°25' E 004°45'0 0.0
2015-Aug-01 03:31N 52°25' E 004°45'0 0.0
2015-Aug-01 02:31N 52°25' E 004°45'0 0.0
2015-Aug-01 01:31N 52°25' E 004°45'0 0.0
2015-Aug-01 00:31N 52°25' E 004°45'0 0.0
2015-Jul-31 23:31N 52°25' E 004°45'0 0.0
2015-Jul-31 22:31N 52°25' E 004°45'0 0.0
2015-Jul-31 21:31N 52°25' E 004°45'0 0.0
2015-Jul-31 20:31N 52°25' E 004°45'0 0.0
2015-Jul-31 19:31N 52°25' E 004°45'0 0.0
2015-Jul-31 18:31N 52°25' E 004°45'0 0.0
2015-Jul-31 17:31N 52°25' E 004°45'0 0.0
2015-Jul-31 16:28N 52°25' E 004°45'0 0.0
2015-Jul-31 15:31N 52°25' E 004°45'0 0.0
2015-Jul-31 14:31N 52°25' E 004°45'0 0.0
2015-Jul-31 13:31N 52°25' E 004°45'0 0.0
2015-Jul-31 12:31N 52°25' E 004°45'0 0.0
2015-Jul-31 11:31N 52°25' E 004°45'0 0.0
2015-Jul-31 10:31N 52°25' E 004°45'0 0.0
2015-Jul-31 09:31N 52°25' E 004°45'0 0.0
2015-Jul-31 08:31N 52°25' E 004°45'0 0.0
2015-Jul-31 07:31N 52°25' E 004°45'0 0.0
2015-Jul-31 06:31N 52°25' E 004°45'0 0.0
2015-Jul-31 05:31N 52°25' E 004°45'0 0.0
2015-Jul-31 04:31N 52°25' E 004°45'0 0.0
2015-Jul-31 03:31N 52°25' E 004°45'0 0.1
2015-Jul-31 02:33N 52°25' E 004°45'5 4.8
2015-Jul-31 01:33N 52°28' E 004°39'2 2.2
2015-Jul-31 00:34N 52°28' E 004°35'7 6.6
2015-Jul-30 23:33N 52°29' E 004°24'6 6.3
2015-Jul-30 22:33N 52°29' E 004°14'4 3.6
2015-Jul-30 21:31N 52°28' E 004°08'0 0.0
2015-Jul-30 20:31N 52°28' E 004°08'0 0.0
2015-Jul-30 19:31N 52°28' E 004°08'0 0.0
2015-Jul-30 18:31N 52°28' E 004°08'0 0.0
2015-Jul-30 17:31N 52°28' E 004°08'0 0.0
2015-Jul-30 16:31N 52°28' E 004°08'0 0.4
2015-Jul-30 15:33N 52°28' E 004°08'1010.5
2015-Jul-30 14:33N 52°26' E 003°51'3313.6
2015-Jul-30 12:06N 52°07' E 003°06'3913.7
2015-Jul-30 09:13N 51°37' E 002°25'812.7
2015-Jul-30 08:33N 51°31' E 002°16'1212.0
2015-Jul-30 07:34N 51°20' E 002°09'1110.9
2015-Jul-30 06:34N 51°11' E 001°58'1111.2
2015-Jul-30 05:33N 51°05' E 001°44'1111.1
2015-Jul-30 04:33N 50°57' E 001°32'1211.6
2015-Jul-30 03:33N 50°46' E 001°24'  

Dump ship's entire track history